createdAt,value
2023-04-25T00:00:29.724Z,2.20
2023-04-25T00:03:00.755Z,1.65
2023-04-25T00:05:28.575Z,1.73
2023-04-25T00:07:56.134Z,1.65
2023-04-25T00:10:23.462Z,1.50
2023-04-25T00:12:55.552Z,1.60
2023-04-25T00:15:27.192Z,1.70
2023-04-25T00:17:57.010Z,1.88
2023-04-25T00:20:25.764Z,1.67
2023-04-25T00:22:54.962Z,1.30
2023-04-25T00:25:22.434Z,1.60
2023-04-25T00:27:52.007Z,1.40
2023-04-25T00:30:19.528Z,1.30
2023-04-25T00:32:50.921Z,1.48
2023-04-25T00:35:26.769Z,1.42
2023-04-25T00:37:57.102Z,1.50
2023-04-25T00:40:24.401Z,1.42
2023-04-25T00:42:53.436Z,1.40
2023-04-25T00:45:21.310Z,1.48
2023-04-25T00:47:49.688Z,1.80
2023-04-25T00:50:17.408Z,1.70
2023-04-25T00:52:46.158Z,1.40
2023-04-25T00:55:15.493Z,1.20
2023-04-25T00:57:42.932Z,1.40
2023-04-25T01:00:11.994Z,1.60
2023-04-25T01:02:42.105Z,1.45
2023-04-25T01:05:10.634Z,1.20
2023-04-25T01:07:38.135Z,1.38
2023-04-25T01:10:08.246Z,1.30
2023-04-25T01:12:36.114Z,1.50
2023-04-25T01:15:03.670Z,1.40
2023-04-25T01:17:32.431Z,1.42
2023-04-25T01:19:59.830Z,1.35
2023-04-25T01:22:27.158Z,1.15
2023-04-25T01:24:54.763Z,1.25
2023-04-25T01:27:23.700Z,1.50
2023-04-25T01:29:51.462Z,1.42
2023-04-25T01:32:21.850Z,1.20
2023-04-25T01:34:49.147Z,1.63
2023-04-25T01:37:17.945Z,1.30
2023-04-25T01:39:46.101Z,1.20
2023-04-25T01:42:13.992Z,1.25
2023-04-25T01:44:43.834Z,1.25
2023-04-25T01:47:14.081Z,1.50
2023-04-25T01:49:41.518Z,1.40
2023-04-25T01:52:08.656Z,1.60
2023-04-25T01:54:36.456Z,1.50
2023-04-25T01:57:04.190Z,1.40
2023-04-25T01:59:35.044Z,1.30
2023-04-25T02:02:25.772Z,1.20
2023-04-25T02:04:55.126Z,1.45
2023-04-25T02:07:30.091Z,1.40
2023-04-25T02:09:57.613Z,1.33
2023-04-25T02:12:27.169Z,1.40
2023-04-25T02:15:06.097Z,1.13
2023-04-25T02:17:43.779Z,1.40
2023-04-25T02:20:13.615Z,1.40
2023-04-25T02:22:43.308Z,1.60
2023-04-25T02:25:11.405Z,1.50
2023-04-25T02:27:38.917Z,1.30
2023-04-25T02:30:09.398Z,1.67
2023-04-25T02:32:37.854Z,1.38
2023-04-25T02:35:07.199Z,1.30
2023-04-25T02:37:36.155Z,1.25
2023-04-25T02:40:04.827Z,1.13
2023-04-25T02:42:32.784Z,1.40
2023-04-25T02:45:00.011Z,1.30
2023-04-25T02:47:27.706Z,1.40
2023-04-25T02:49:57.530Z,1.50
2023-04-25T02:52:25.867Z,1.50
2023-04-25T02:55:03.258Z,1.40
2023-04-25T02:57:31.572Z,1.52
2023-04-25T02:59:58.889Z,1.73
2023-04-25T03:02:26.490Z,1.60
2023-04-25T03:04:54.827Z,1.65
2023-04-25T03:07:23.274Z,1.85
2023-04-25T03:09:50.568Z,1.60
2023-04-25T03:12:19.152Z,1.70
2023-04-25T03:14:49.084Z,1.65
2023-04-25T03:17:17.094Z,1.58
2023-04-25T03:19:44.518Z,2.08
2023-04-25T03:22:11.864Z,1.75
2023-04-25T03:24:43.062Z,1.75
2023-04-25T03:27:10.489Z,2.00
2023-04-25T03:29:37.895Z,1.90
2023-04-25T03:32:08.439Z,1.77
2023-04-25T03:34:35.736Z,2.00
2023-04-25T03:37:02.944Z,1.85
2023-04-25T03:39:36.089Z,2.03
2023-04-25T03:42:03.884Z,1.85
2023-04-25T03:44:33.798Z,2.20
2023-04-25T03:47:03.882Z,2.20
2023-04-25T03:49:32.198Z,1.70
2023-04-25T03:52:02.994Z,1.83
2023-04-25T03:57:06.458Z,2.13
2023-04-25T03:59:37.389Z,2.03
2023-04-25T04:02:07.098Z,1.70
2023-04-25T04:04:36.994Z,1.88
2023-04-25T04:07:07.146Z,1.70
2023-04-25T04:09:40.550Z,2.20
2023-04-25T04:12:11.887Z,2.00
2023-04-25T04:14:41.555Z,1.80
2023-04-25T04:17:11.243Z,2.03
2023-04-25T04:19:41.047Z,1.63
2023-04-25T04:22:20.263Z,1.55
2023-04-25T04:24:48.654Z,1.80
2023-04-25T04:27:24.961Z,1.50
2023-04-25T04:29:58.660Z,1.92
2023-04-25T04:32:34.421Z,1.65
2023-04-25T04:35:02.407Z,1.40
2023-04-25T04:37:29.592Z,1.67
2023-04-25T04:39:59.480Z,1.80
2023-04-25T04:42:39.129Z,1.33
2023-04-25T04:45:35.907Z,1.90
2023-04-25T04:48:19.543Z,1.45
2023-04-25T04:51:17.828Z,1.60
2023-04-25T04:54:03.337Z,1.63
2023-04-25T04:56:53.693Z,1.58
2023-04-25T04:59:23.764Z,1.65
2023-04-25T05:02:04.586Z,1.60
2023-04-25T05:04:47.023Z,1.75
2023-04-25T05:07:21.587Z,2.03
2023-04-25T05:10:12.038Z,1.52
2023-04-25T05:13:13.668Z,1.80
2023-04-25T05:16:00.784Z,1.60
2023-04-25T05:18:49.336Z,1.65
2023-04-25T05:21:36.809Z,1.42
2023-04-25T05:24:19.077Z,1.60
2023-04-25T05:27:07.436Z,1.63
2023-04-25T05:29:55.712Z,1.45
2023-04-25T05:32:43.236Z,1.60
2023-04-25T05:35:12.783Z,1.50
2023-04-25T05:37:47.293Z,1.45
2023-04-25T05:40:15.865Z,1.55
2023-04-25T05:42:55.486Z,1.70
2023-04-25T05:45:41.840Z,1.60
2023-04-25T05:48:29.962Z,1.50
2023-04-25T05:51:32.636Z,1.58
2023-04-25T05:54:27.798Z,1.50
2023-04-25T05:56:58.496Z,1.42
2023-04-25T05:59:26.224Z,2.00
2023-04-25T06:01:55.933Z,1.45
2023-04-25T06:04:24.068Z,1.50
2023-04-25T06:06:51.810Z,1.65
2023-04-25T06:09:24.209Z,1.80
2023-04-25T06:11:55.569Z,1.30
2023-04-25T06:14:22.968Z,1.70
2023-04-25T06:16:54.676Z,1.45
2023-04-25T06:19:25.026Z,1.60
2023-04-25T06:21:52.366Z,1.70
2023-04-25T06:24:20.381Z,1.70
2023-04-25T06:26:50.452Z,1.50
2023-04-25T06:29:17.777Z,1.25
2023-04-25T06:31:48.179Z,1.60
2023-04-25T06:34:16.302Z,1.40
2023-04-25T06:36:45.134Z,1.30
2023-04-25T06:39:15.731Z,1.43
2023-04-25T06:41:43.015Z,1.50
2023-04-25T06:44:30.703Z,1.50
2023-04-25T06:46:58.940Z,1.60
2023-04-25T06:49:26.346Z,1.70
2023-04-25T06:51:54.119Z,1.73
2023-04-25T06:54:21.748Z,1.42
2023-04-25T06:57:01.834Z,1.52
2023-04-25T06:59:29.957Z,1.55
2023-04-25T07:01:58.530Z,1.67
2023-04-25T07:04:29.988Z,1.50
2023-04-25T07:06:59.421Z,1.50
2023-04-25T07:09:35.132Z,1.30
2023-04-25T07:12:03.755Z,2.00
2023-04-25T07:14:31.780Z,1.50
2023-04-25T07:17:01.968Z,1.60
2023-04-25T07:19:31.828Z,1.40
2023-04-25T07:22:03.321Z,1.50
2023-04-25T07:24:35.187Z,1.52
2023-04-25T07:27:06.444Z,1.50
2023-04-25T07:29:57.158Z,1.65
2023-04-25T07:32:25.017Z,1.65
2023-04-25T07:34:54.667Z,1.45
2023-04-25T07:37:27.074Z,1.40
2023-04-25T07:40:05.037Z,1.48
2023-04-25T07:42:33.387Z,1.73
2023-04-25T07:45:01.975Z,1.48
2023-04-25T07:47:30.159Z,1.77
2023-04-25T07:49:59.035Z,1.50
2023-04-25T07:52:26.716Z,1.40
2023-04-25T07:55:02.423Z,1.80
2023-04-25T07:57:41.700Z,1.33
2023-04-25T08:00:10.509Z,1.50
2023-04-25T08:02:41.754Z,1.37
2023-04-25T08:05:17.620Z,1.17
2023-04-25T08:07:51.946Z,1.70
2023-04-25T08:10:19.775Z,1.60
2023-04-25T08:12:51.260Z,1.50
2023-04-25T08:15:23.761Z,1.55
2023-04-25T08:17:51.148Z,1.37
2023-04-25T08:20:20.872Z,1.52
2023-04-25T08:22:49.824Z,1.50
2023-04-25T08:25:36.077Z,1.30
2023-04-25T08:28:06.789Z,1.50
2023-04-25T08:30:37.791Z,1.25
2023-04-25T08:33:06.298Z,1.40
2023-04-25T08:35:55.576Z,1.80
2023-04-25T08:38:23.197Z,1.20
2023-04-25T08:40:56.429Z,1.40
2023-04-25T08:43:25.107Z,1.70
2023-04-25T08:45:56.724Z,1.48
2023-04-25T08:48:46.717Z,1.60
2023-04-25T08:51:29.441Z,1.30
2023-04-25T08:54:12.889Z,1.52
2023-04-25T08:56:48.784Z,1.40
2023-04-25T08:59:16.641Z,1.42
2023-04-25T09:01:47.612Z,1.52
2023-04-25T09:04:16.490Z,1.42
2023-04-25T09:06:44.304Z,1.67
2023-04-25T09:09:12.007Z,1.45
2023-04-25T09:11:39.403Z,1.50
2023-04-25T09:14:16.661Z,1.33
2023-04-25T09:17:08.799Z,1.60
2023-04-25T09:19:53.457Z,1.75
2023-04-25T09:22:31.528Z,2.10
2023-04-25T09:25:04.439Z,2.15
2023-04-25T09:27:32.104Z,2.42
2023-04-25T09:30:17.236Z,2.53
2023-04-25T09:33:07.017Z,2.50
2023-04-25T09:35:46.060Z,2.60
2023-04-25T09:38:22.305Z,2.70
2023-04-25T09:41:10.656Z,2.95
2023-04-25T09:43:47.929Z,3.15
2023-04-25T09:46:16.662Z,3.38
2023-04-25T09:48:51.213Z,4.05
2023-04-25T09:51:28.014Z,3.30
2023-04-25T09:53:57.258Z,3.27
2023-04-25T09:56:45.447Z,3.50
2023-04-25T09:59:16.625Z,3.03
2023-04-25T10:01:44.316Z,2.75
2023-04-25T10:04:27.976Z,4.20
2023-04-25T10:07:06.387Z,3.33
2023-04-25T10:09:37.250Z,2.58
2023-04-25T10:12:07.186Z,2.75
2023-04-25T10:14:34.810Z,2.90
2023-04-25T10:17:02.824Z,2.60
2023-04-25T10:19:30.948Z,2.58
2023-04-25T10:22:15.820Z,2.75
2023-04-25T10:24:44.067Z,2.58
2023-04-25T10:27:14.168Z,2.90
2023-04-25T10:29:44.416Z,2.38
2023-04-25T10:32:14.517Z,2.40
2023-04-25T10:34:49.449Z,2.00
2023-04-25T10:37:16.639Z,2.40
2023-04-25T10:40:04.293Z,2.10
2023-04-25T10:42:39.251Z,2.33
2023-04-25T10:45:16.701Z,2.42
2023-04-25T10:47:48.457Z,2.10
2023-04-25T10:50:20.565Z,2.35
2023-04-25T10:52:50.299Z,2.17
2023-04-25T10:55:17.641Z,2.05
2023-04-25T10:57:50.782Z,2.08
2023-04-25T11:00:20.522Z,1.95
2023-04-25T11:02:58.922Z,2.03
2023-04-25T11:05:36.443Z,2.10
2023-04-25T11:08:12.625Z,2.10
2023-04-25T11:10:45.584Z,2.33
2023-04-25T11:13:12.962Z,1.85
2023-04-25T11:15:40.947Z,2.00
2023-04-25T11:18:10.963Z,1.92
2023-04-25T11:20:39.647Z,1.90
2023-04-25T11:23:08.793Z,1.80
2023-04-25T11:25:38.752Z,2.30
2023-04-25T11:28:06.574Z,1.80
2023-04-25T11:30:33.987Z,1.85
2023-04-25T11:33:03.982Z,2.00
2023-04-25T11:35:31.918Z,2.15
2023-04-25T11:38:02.421Z,2.00
2023-04-25T11:40:31.506Z,1.70
2023-04-25T11:43:02.233Z,2.05
2023-04-25T11:45:31.665Z,1.50
2023-04-25T11:48:03.232Z,1.87
2023-04-25T11:50:32.609Z,1.92
2023-04-25T11:53:00.016Z,1.63
2023-04-25T11:55:27.438Z,1.73
2023-04-25T11:57:55.619Z,1.42
2023-04-25T12:00:23.547Z,1.70
2023-04-25T12:02:56.844Z,1.80
2023-04-25T12:05:34.963Z,1.80
2023-04-25T12:08:15.772Z,1.70
2023-04-25T12:10:49.062Z,1.70
2023-04-25T12:13:27.148Z,1.63
2023-04-25T12:15:59.731Z,1.50
2023-04-25T12:18:33.290Z,1.90
2023-04-25T12:21:01.031Z,1.70
2023-04-25T12:23:29.531Z,1.60
2023-04-25T12:25:58.787Z,1.75
2023-04-25T12:28:28.837Z,1.90
2023-04-25T12:31:05.406Z,1.75
2023-04-25T12:33:39.107Z,1.90
2023-04-25T12:36:13.279Z,1.60
2023-04-25T12:38:42.649Z,1.70
2023-04-25T12:41:10.377Z,1.73
2023-04-25T12:43:39.897Z,1.60
2023-04-25T12:46:07.693Z,1.75
2023-04-25T12:48:36.009Z,1.60
2023-04-25T12:51:06.711Z,2.20
2023-04-25T12:53:38.617Z,1.70
2023-04-25T12:56:06.791Z,1.95
2023-04-25T12:58:34.964Z,2.00
2023-04-25T13:01:02.344Z,1.75
2023-04-25T13:03:31.037Z,1.73
2023-04-25T13:05:58.587Z,1.90
2023-04-25T13:08:25.965Z,1.85
2023-04-25T13:10:53.474Z,2.40
2023-04-25T13:13:21.244Z,1.63
2023-04-25T13:15:48.700Z,1.75
2023-04-25T13:18:21.256Z,1.60
2023-04-25T13:20:51.906Z,1.65
2023-04-25T13:23:19.979Z,1.70
2023-04-25T13:25:49.347Z,1.77
2023-04-25T13:28:19.294Z,1.90
2023-04-25T13:30:48.025Z,1.70
2023-04-25T13:33:16.115Z,1.65
2023-04-25T13:35:43.725Z,1.85
2023-04-25T13:38:10.965Z,1.70
2023-04-25T13:40:38.377Z,1.60
2023-04-25T13:43:07.381Z,1.80
2023-04-25T13:45:37.013Z,1.80
2023-04-25T13:48:07.923Z,2.03
2023-04-25T13:50:37.714Z,1.83
2023-04-25T13:53:07.541Z,1.73
2023-04-25T13:55:39.661Z,1.90
2023-04-25T13:58:08.971Z,1.70
2023-04-25T14:00:40.964Z,2.00
2023-04-25T14:03:09.442Z,1.67
2023-04-25T14:05:41.092Z,1.70
2023-04-25T14:08:10.572Z,2.10
2023-04-25T14:10:39.068Z,1.95
2023-04-25T14:13:08.293Z,1.60
2023-04-25T14:15:36.966Z,2.17
2023-04-25T14:18:04.600Z,2.22
2023-04-25T14:20:32.141Z,2.13
2023-04-25T14:22:59.643Z,2.20
2023-04-25T14:25:31.275Z,2.58
2023-04-25T14:27:58.762Z,2.95
2023-04-25T14:30:26.186Z,2.58
2023-04-25T14:32:53.569Z,2.60
2023-04-25T14:35:21.450Z,2.63
2023-04-25T14:37:51.047Z,2.58
2023-04-25T14:40:18.531Z,2.58
2023-04-25T14:42:52.101Z,2.33
2023-04-25T14:45:19.463Z,2.40
2023-04-25T14:47:49.211Z,2.50
2023-04-25T14:50:18.741Z,2.50
2023-04-25T14:52:46.831Z,2.60
2023-04-25T14:55:19.532Z,2.75
2023-04-25T14:57:47.082Z,2.40
2023-04-25T15:00:17.387Z,2.75
2023-04-25T15:02:48.205Z,2.70
2023-04-25T15:05:18.830Z,2.42
2023-04-25T15:07:48.915Z,2.50
2023-04-25T15:10:19.061Z,2.47
2023-04-25T15:12:51.957Z,2.80
2023-04-25T15:15:25.963Z,2.90
2023-04-25T15:17:59.110Z,2.97
2023-04-25T15:20:28.529Z,2.72
2023-04-25T15:22:56.118Z,2.83
2023-04-25T15:25:23.759Z,2.90
2023-04-25T15:27:53.554Z,2.45
2023-04-25T15:30:29.309Z,2.20
2023-04-25T15:35:28.587Z,2.10
2023-04-25T15:37:57.330Z,2.05
2023-04-25T15:40:29.593Z,2.30
2023-04-25T15:42:57.409Z,2.15
2023-04-25T15:45:29.702Z,2.03
2023-04-25T15:47:57.346Z,2.08
2023-04-25T15:50:25.768Z,2.10
2023-04-25T15:52:53.407Z,2.08
2023-04-25T15:55:22.224Z,1.90
2023-04-25T15:57:51.580Z,2.10
2023-04-25T16:00:22.486Z,2.08
2023-04-25T16:02:51.163Z,2.10
2023-04-25T16:05:29.964Z,2.22
2023-04-25T16:07:57.322Z,1.88
2023-04-25T16:10:26.705Z,1.80
2023-04-25T16:12:54.575Z,1.90
2023-04-25T16:15:24.951Z,1.85
2023-04-25T16:17:52.815Z,1.70
2023-04-25T16:20:20.104Z,2.10
2023-04-25T16:22:47.899Z,1.85
2023-04-25T16:25:15.265Z,1.92
2023-04-25T16:27:42.667Z,2.00
2023-04-25T16:30:11.693Z,1.70
2023-04-25T16:32:39.961Z,1.90
2023-04-25T16:35:08.858Z,2.40
2023-04-25T16:37:36.408Z,2.50
2023-04-25T16:40:04.639Z,2.10
2023-04-25T16:42:32.182Z,2.00
2023-04-25T16:44:59.732Z,2.35
2023-04-25T16:47:27.462Z,2.53
2023-04-25T16:49:54.914Z,2.38
2023-04-25T16:52:25.500Z,2.33
2023-04-25T16:54:55.134Z,1.83
2023-04-25T16:57:23.924Z,2.08
2023-04-25T16:59:52.122Z,2.17
2023-04-25T17:02:21.971Z,2.00
2023-04-25T17:04:49.305Z,1.90
2023-04-25T17:07:16.945Z,1.85
2023-04-25T17:09:44.479Z,2.10
2023-04-25T17:12:12.269Z,2.25
2023-04-25T17:14:40.009Z,2.50
2023-04-25T17:17:12.838Z,2.00
2023-04-25T17:19:40.587Z,2.10
2023-04-25T17:22:08.301Z,2.30
2023-04-25T17:24:36.042Z,2.10
2023-04-25T17:27:03.694Z,2.75
2023-04-25T17:29:35.038Z,3.17
2023-04-25T17:32:03.479Z,3.72
2023-04-25T17:34:34.814Z,3.85
2023-04-25T17:37:02.169Z,3.03
2023-04-25T17:39:29.569Z,3.60
2023-04-25T17:44:26.540Z,3.28
2023-04-25T17:46:54.612Z,3.55
2023-04-25T17:49:23.327Z,3.33
2023-04-25T17:51:53.148Z,2.50
2023-04-25T17:54:23.369Z,3.47
2023-04-25T17:56:51.075Z,2.58
2023-04-25T17:59:19.475Z,2.72
2023-04-25T18:01:49.080Z,2.78
2023-04-25T18:04:18.367Z,2.42
2023-04-25T18:06:45.841Z,2.95
2023-04-25T18:09:23.574Z,3.15
2023-04-25T18:11:55.126Z,2.40
2023-04-25T18:14:25.070Z,2.25
2023-04-25T18:16:56.864Z,2.28
2023-04-25T18:19:27.239Z,1.95
2023-04-25T18:21:59.000Z,2.25
2023-04-25T18:24:27.590Z,2.15
2023-04-25T18:26:57.404Z,2.38
2023-04-25T18:29:33.652Z,2.28
2023-04-25T18:32:02.420Z,2.42
2023-04-25T18:34:32.143Z,2.28
2023-04-25T18:36:59.563Z,2.58
2023-04-25T18:39:29.144Z,2.30
2023-04-25T18:42:04.355Z,2.42
2023-04-25T18:44:36.484Z,2.30
2023-04-25T18:47:04.404Z,2.35
2023-04-25T18:49:32.412Z,2.35
2023-04-25T18:51:59.866Z,2.30
2023-04-25T18:54:27.307Z,2.13
2023-04-25T18:56:57.279Z,2.50
2023-04-25T18:59:26.990Z,2.60
2023-04-25T19:01:54.582Z,2.30
2023-04-25T19:04:24.712Z,2.10
2023-04-25T19:06:54.584Z,2.30
2023-04-25T19:09:22.082Z,2.20
2023-04-25T19:11:51.893Z,2.10
2023-04-25T19:14:22.222Z,1.80
2023-04-25T19:16:51.732Z,2.13
2023-04-25T19:19:19.024Z,1.70
2023-04-25T19:21:50.338Z,2.05
2023-04-25T19:24:17.611Z,2.15
2023-04-25T19:26:44.891Z,2.25
2023-04-25T19:29:17.337Z,1.92
2023-04-25T19:31:48.428Z,1.95
2023-04-25T19:34:16.310Z,2.08
2023-04-25T19:36:44.189Z,2.22
2023-04-25T19:39:11.853Z,1.92
2023-04-25T19:41:41.554Z,1.85
2023-04-25T19:44:09.472Z,2.08
2023-04-25T19:46:39.405Z,2.10
2023-04-25T19:49:07.713Z,2.05
2023-04-25T19:51:41.173Z,1.80
2023-04-25T19:54:08.459Z,2.40
2023-04-25T19:56:36.144Z,2.00
2023-04-25T19:59:06.598Z,2.08
2023-04-25T20:01:33.959Z,1.88
2023-04-25T20:04:01.674Z,2.00
2023-04-25T20:06:34.006Z,2.17
2023-04-25T20:09:06.562Z,2.20
2023-04-25T20:11:34.261Z,2.00
2023-04-25T20:14:03.160Z,2.00
2023-04-25T20:16:31.251Z,1.83
2023-04-25T20:19:01.631Z,2.10
2023-04-25T20:21:29.684Z,1.83
2023-04-25T20:24:01.474Z,1.50
2023-04-25T20:26:29.226Z,2.03
2023-04-25T20:28:57.055Z,1.85
2023-04-25T20:31:24.485Z,2.00
2023-04-25T20:33:51.975Z,1.77
2023-04-25T20:36:21.171Z,2.15
2023-04-25T20:38:52.056Z,1.80
2023-04-25T20:41:24.114Z,1.80
2023-04-25T20:43:54.485Z,1.80
2023-04-25T20:46:26.991Z,1.80
2023-04-25T20:48:56.607Z,1.80
2023-04-25T20:51:24.069Z,2.20
2023-04-25T20:53:58.795Z,2.00
2023-04-25T20:56:26.532Z,2.17
2023-04-25T20:58:58.068Z,1.67
2023-04-25T21:01:27.981Z,1.83
2023-04-25T21:03:55.659Z,2.15
2023-04-25T21:06:25.301Z,2.00
2023-04-25T21:08:55.052Z,2.10
2023-04-25T21:11:24.425Z,2.00
2023-04-25T21:13:52.383Z,1.80
2023-04-25T21:16:19.773Z,1.80
2023-04-25T21:18:46.969Z,1.98
2023-04-25T21:21:14.521Z,2.20
2023-04-25T21:23:44.353Z,1.85
2023-04-25T21:26:11.718Z,2.08
2023-04-25T21:28:39.190Z,1.60
2023-04-25T21:31:06.662Z,2.10
2023-04-25T21:33:33.973Z,1.58
2023-04-25T21:36:01.167Z,1.73
2023-04-25T21:38:31.810Z,1.65
2023-04-25T21:40:59.220Z,1.63
2023-04-25T21:43:28.694Z,1.85
2023-04-25T21:48:31.293Z,1.75
2023-04-25T21:51:01.052Z,1.90
2023-04-25T21:53:31.444Z,1.60
2023-04-25T21:55:58.752Z,1.90
2023-04-25T21:58:26.062Z,1.85
2023-04-25T22:00:53.817Z,1.45
2023-04-25T22:03:24.331Z,1.90
2023-04-25T22:05:51.871Z,1.80
2023-04-25T22:08:21.217Z,1.70
2023-04-25T22:10:50.988Z,1.70
2023-04-25T22:13:18.398Z,1.95
2023-04-25T22:15:45.939Z,1.60
2023-04-25T22:18:16.242Z,1.65
2023-04-25T22:20:49.545Z,1.60
2023-04-25T22:23:18.156Z,1.65
2023-04-25T22:25:47.830Z,1.90
2023-04-25T22:28:15.106Z,2.10
2023-04-25T22:30:42.296Z,1.88
2023-04-25T22:33:09.671Z,1.88
2023-04-25T22:35:37.026Z,1.75
2023-04-25T22:38:04.278Z,1.88
2023-04-25T22:40:33.950Z,1.67
2023-04-25T22:43:01.133Z,1.85
2023-04-25T22:45:28.607Z,1.48
2023-04-25T22:47:55.824Z,1.52
2023-04-25T22:50:23.259Z,1.63
2023-04-25T22:52:50.758Z,2.00
2023-04-25T22:55:17.912Z,1.67
2023-04-25T22:57:47.606Z,1.60
2023-04-25T23:00:21.628Z,1.80
2023-04-25T23:02:53.414Z,1.60
2023-04-25T23:05:20.876Z,1.60
2023-04-25T23:07:48.424Z,1.55
2023-04-25T23:10:18.800Z,1.58
2023-04-25T23:12:45.998Z,1.60
2023-04-25T23:15:13.802Z,1.60
2023-04-25T23:17:42.179Z,1.60
2023-04-25T23:20:11.200Z,1.63
2023-04-25T23:22:38.870Z,1.40
2023-04-25T23:25:09.617Z,1.70
2023-04-25T23:27:37.363Z,2.00
2023-04-25T23:30:06.392Z,1.88
2023-04-25T23:32:33.685Z,1.67
2023-04-25T23:35:01.089Z,1.83
2023-04-25T23:37:30.049Z,1.50
2023-04-25T23:39:59.681Z,1.65
2023-04-25T23:42:26.949Z,1.90
2023-04-25T23:44:54.144Z,1.60
2023-04-25T23:47:21.465Z,1.80
2023-04-25T23:49:51.015Z,1.90
2023-04-25T23:52:18.708Z,1.55
2023-04-25T23:54:46.225Z,1.70
2023-04-25T23:57:13.722Z,1.60
2023-04-25T23:59:41.036Z,1.63
